Sunday, April 22, 2018, 12:48 AM GMT
Back to Local

CWNH, Riviere Du Loup, Que.

Location: , , Canada Lat: 47.8
Local Time: 12:48 AM GMT ( 0:48 GMT) Lon: -69.55
Time Zone: GMT Elev: 485 ft

Show me the last for .
Show Decoded

2018-04-22 00:00 METAR CWNH 220000Z AUTO 32004KT 04/M07 RMK AO1 SOG 32 3010 SLP223 T00351073 =
2018-04-21 23:00 METAR CWNH 212300Z AUTO 33006KT 05/M07 RMK AO1 SOG 32 3000 SLP217 T00531073 =
2018-04-21 22:00 METAR CWNH 212200Z AUTO 33006KT 06/M06 RMK AO1 SOG 32 5000 SLP212 T00621059 =
2018-04-21 21:00 METAR CWNH 212100Z AUTO 33006KT 07/M06 RMK AO1 SOG 32 5000 SLP212 T00671063 =
2018-04-21 20:00 METAR CWNH 212000Z AUTO 29004KT 07/M06 RMK AO1 SOG 32 6000 SLP210 T00731055 =
2018-04-21 19:00 METAR CWNH 211900Z AUTO 24004KT 07/M06 RMK AO1 SOG 32 7000 SLP211 T00661059 =
2018-04-21 18:00 METAR CWNH 211800Z AUTO 29005KT 06/M07 RMK AO1 SOG 33 6010 SLP213 T00631070 =
2018-04-21 17:00 METAR CWNH 211700Z AUTO 30005KT 05/M07 RMK AO1 SOG 33 7010 SLP216 T00451068 =
2018-04-21 16:00 METAR CWNH 211600Z AUTO 33006KT 05/M07 RMK AO1 SOG 34 8000 SLP218 T00461069 =
2018-04-21 15:00 METAR CWNH 211500Z AUTO 36005KT 03/M07 RMK AO1 SOG 34 0000 SLP224 T00341072 =
2018-04-21 14:00 METAR CWNH 211400Z AUTO 34008KT 03/M06 RMK AO1 SOG 34 0000 SLP226 T00291062 =
2018-04-21 13:00 METAR CWNH 211300Z AUTO 34007KT 02/M06 RMK AO1 SOG 34 3000 SLP227 T00231062 =
2018-04-21 12:00 METAR CWNH 211200Z AUTO 33008KT 01/M05 RMK AO1 SOG 34 1000 SLP224 T00141052 =
2018-04-21 11:00 METAR CWNH 211100Z AUTO 33005KT 01/M04 RMK AO1 SOG 34 1010 SLP223 T00091039 =
2018-04-21 10:00 METAR CWNH 211000Z AUTO 33005KT 01/M04 RMK AO1 SOG 34 3010 SLP221 T00061037 =
2018-04-21 09:00 METAR CWNH 210900Z AUTO 34005KT 01/M04 RMK AO1 SOG 34 3010 SLP215 T00051037 =
2018-04-21 08:00 METAR CWNH 210800Z AUTO 33007KT 01/M04 RMK AO1 SOG 34 3000 SLP209 T00101036 =
2018-04-21 07:00 METAR CWNH 210700Z AUTO 34007KT 02/M03 RMK AO1 SOG 34 3000 SLP205 T00151027 =
2018-04-21 06:00 METAR CWNH 210600Z AUTO 34007KT 02/M03 RMK AO1 SOG 34 2000 PK WND 32017/0513
                 SLP203 T00201029 =
2018-04-21 05:00 METAR CWNH 210500Z AUTO 33008KT 02/M01 RMK AO1 SOG 34 3000 SLP202 T00191014 =
2018-04-21 04:00 METAR CWNH 210400Z AUTO 32004KT 02/M01 RMK AO1 SOG 34 3000 SLP201 T00201010 =
2018-04-21 03:00 METAR CWNH 210300Z AUTO 30003KT 02/M01 RMK AO1 SOG 34 1000 SLP200 T00171006 =
2018-04-21 02:00 METAR CWNH 210200Z AUTO 29002KT 01/M00 RMK AO1 SOG 34 1010 SLP200 T00141002 =
2018-04-21 01:00 METAR CWNH 210100Z AUTO 25004KT 01/01 RMK AO1 SOG 34 1020 SLP200 T00130005 =

Support USWX by starting your Amazon purchase here.